createdAt,value
2022-08-07T00:00:15.309Z,12.86
2022-08-07T00:03:15.634Z,12.47
2022-08-07T00:06:13.294Z,12.39
2022-08-07T00:09:16.684Z,12.32
2022-08-07T00:12:19.319Z,12.78
2022-08-07T00:15:16.638Z,12.60
2022-08-07T00:18:24.028Z,12.51
2022-08-07T00:21:55.946Z,12.44
2022-08-07T00:24:38.753Z,12.24
2022-08-07T00:27:53.235Z,12.61
2022-08-07T00:30:50.936Z,12.21
2022-08-07T00:33:47.967Z,12.22
2022-08-07T00:36:44.884Z,12.23
2022-08-07T00:39:45.090Z,12.11
2022-08-07T00:42:51.020Z,12.36
2022-08-07T00:45:49.639Z,12.40
2022-08-07T00:48:49.889Z,12.51
2022-08-07T00:51:57.020Z,12.55
2022-08-07T00:54:55.639Z,12.53
2022-08-07T00:57:55.873Z,12.21
2022-08-07T01:00:53.897Z,12.16
2022-08-07T01:03:56.904Z,12.07
2022-08-07T01:06:56.866Z,11.99
2022-08-07T01:10:05.711Z,12.19
2022-08-07T01:13:05.466Z,12.27
2022-08-07T01:16:06.104Z,12.14
2022-08-07T01:19:14.884Z,12.09
2022-08-07T01:22:22.878Z,12.32
2022-08-07T01:25:53.997Z,12.22
2022-08-07T01:28:51.788Z,12.16
2022-08-07T01:31:49.646Z,12.09
2022-08-07T01:34:47.501Z,12.01
2022-08-07T01:37:46.693Z,12.04
2022-08-07T01:40:45.753Z,11.78
2022-08-07T01:43:44.889Z,11.81
2022-08-07T01:46:42.938Z,11.86
2022-08-07T01:49:39.898Z,12.11
2022-08-07T01:52:38.969Z,12.07
2022-08-07T01:55:51.319Z,12.01
2022-08-07T01:58:59.144Z,12.17
2022-08-07T02:03:11.485Z,11.97
2022-08-07T02:05:48.207Z,11.59
2022-08-07T02:09:00.015Z,11.92
2022-08-07T02:12:03.460Z,11.84
2022-08-07T02:15:06.766Z,11.86
2022-08-07T02:18:04.882Z,11.69
2022-08-07T02:21:06.391Z,11.67
2022-08-07T02:24:04.643Z,11.55
2022-08-07T02:27:02.805Z,12.01
2022-08-07T02:30:03.546Z,11.93
2022-08-07T02:33:09.515Z,11.81
2022-08-07T02:36:28.266Z,11.37
2022-08-07T02:39:43.085Z,11.51
2022-08-07T02:42:41.998Z,11.40
2022-08-07T02:45:58.069Z,11.58
2022-08-07T02:48:58.274Z,11.63
2022-08-07T02:51:58.851Z,11.48
2022-08-07T02:54:58.346Z,11.83
2022-08-07T02:58:02.940Z,11.36
2022-08-07T03:01:03.416Z,11.51
2022-08-07T03:04:03.473Z,11.33
2022-08-07T03:07:07.220Z,11.49
2022-08-07T03:10:09.625Z,11.55
2022-08-07T03:13:07.557Z,11.48
2022-08-07T03:16:05.987Z,11.30
2022-08-07T03:19:03.171Z,11.52
2022-08-07T03:22:04.399Z,11.47
2022-08-07T03:25:01.888Z,11.46
2022-08-07T03:28:09.731Z,11.60
2022-08-07T03:31:24.728Z,11.53
2022-08-07T03:34:39.719Z,11.37
2022-08-07T03:37:54.043Z,11.49
2022-08-07T03:40:57.344Z,11.59
2022-08-07T03:43:57.090Z,11.38
2022-08-07T03:47:12.959Z,11.52
2022-08-07T03:50:11.784Z,11.30
2022-08-07T03:53:10.354Z,11.25
2022-08-07T03:56:10.196Z,11.29
2022-08-07T03:59:13.874Z,11.29
2022-08-07T04:02:11.892Z,11.15
2022-08-07T04:05:11.485Z,11.26
2022-08-07T04:08:16.063Z,11.29
2022-08-07T04:12:25.548Z,11.42
2022-08-07T04:14:37.248Z,11.27
2022-08-07T04:18:31.004Z,11.24
2022-08-07T04:20:54.561Z,11.17
2022-08-07T04:24:05.678Z,11.11
2022-08-07T04:27:05.245Z,11.18
2022-08-07T04:30:35.581Z,11.20
2022-08-07T04:33:29.598Z,11.31
2022-08-07T04:36:26.899Z,11.21
2022-08-07T04:39:27.989Z,11.01
2022-08-07T04:42:34.368Z,11.25
2022-08-07T04:46:00.691Z,11.39
2022-08-07T04:49:38.671Z,11.20
2022-08-07T04:52:59.335Z,11.34
2022-08-07T04:58:24.301Z,11.32
2022-08-07T05:00:11.222Z,11.46
2022-08-07T05:04:00.475Z,11.45
2022-08-07T05:07:09.578Z,11.58
2022-08-07T05:10:23.186Z,11.59
2022-08-07T05:14:54.446Z,11.76
2022-08-07T05:16:59.032Z,11.68
2022-08-07T05:19:57.516Z,12.09
2022-08-07T05:23:07.009Z,12.24
2022-08-07T05:26:23.951Z,12.17
2022-08-07T05:29:23.687Z,12.39
2022-08-07T05:32:24.819Z,12.57
2022-08-07T05:35:23.892Z,12.63
2022-08-07T05:38:59.452Z,12.56
2022-08-07T05:42:01.880Z,12.75
2022-08-07T05:45:14.445Z,12.81
2022-08-07T05:48:20.927Z,12.83
2022-08-07T05:51:24.586Z,12.85
2022-08-07T05:54:44.060Z,13.08
2022-08-07T05:57:42.381Z,13.22
2022-08-07T06:00:40.279Z,13.28
2022-08-07T06:03:56.848Z,13.45
2022-08-07T06:07:03.367Z,13.58
2022-08-07T06:10:05.598Z,13.82
2022-08-07T06:13:03.479Z,13.88
2022-08-07T06:16:03.330Z,14.07
2022-08-07T06:19:03.061Z,14.10
2022-08-07T06:22:15.779Z,14.40
2022-08-07T06:25:20.633Z,14.59
2022-08-07T06:28:28.014Z,14.54
2022-08-07T06:31:46.531Z,14.72
2022-08-07T06:34:45.288Z,14.85
2022-08-07T06:37:43.586Z,15.10
2022-08-07T06:40:48.201Z,15.23
2022-08-07T06:43:59.191Z,15.21
2022-08-07T06:47:12.541Z,15.25
2022-08-07T06:50:13.482Z,15.43
2022-08-07T06:54:11.546Z,15.76
2022-08-07T06:56:49.833Z,15.81
2022-08-07T07:00:12.928Z,15.80
2022-08-07T07:03:10.871Z,15.89
2022-08-07T07:06:11.545Z,15.82
2022-08-07T07:09:31.245Z,15.99
2022-08-07T07:12:53.778Z,15.92
2022-08-07T07:16:00.318Z,16.06
2022-08-07T07:19:34.018Z,16.38
2022-08-07T07:22:35.894Z,16.30
2022-08-07T07:26:35.139Z,16.42
2022-08-07T07:29:38.674Z,16.37
2022-08-07T07:32:23.940Z,16.57
2022-08-07T07:35:23.124Z,16.63
2022-08-07T07:38:25.411Z,16.66
2022-08-07T07:41:24.099Z,16.70
2022-08-07T07:44:49.671Z,16.86
2022-08-07T07:47:52.647Z,16.87
2022-08-07T07:50:52.304Z,17.04
2022-08-07T07:53:52.814Z,16.96
2022-08-07T07:56:52.436Z,16.87
2022-08-07T07:59:53.837Z,17.34
2022-08-07T08:03:01.295Z,17.64
2022-08-07T08:06:03.912Z,17.22
2022-08-07T08:09:05.939Z,17.47
2022-08-07T08:12:06.260Z,17.56
2022-08-07T08:15:06.847Z,17.47
2022-08-07T08:18:36.884Z,17.73
2022-08-07T08:21:58.604Z,17.97
2022-08-07T08:25:41.859Z,18.50
2022-08-07T08:28:44.847Z,18.65
2022-08-07T08:32:17.522Z,18.98
2022-08-07T08:35:01.549Z,19.19
2022-08-07T08:38:04.581Z,19.96
2022-08-07T08:41:57.037Z,19.27
2022-08-07T08:45:13.320Z,20.26
2022-08-07T08:48:55.438Z,20.37
2022-08-07T08:52:24.465Z,21.02
2022-08-07T08:55:54.730Z,21.49
2022-08-07T08:59:06.427Z,21.45
2022-08-07T09:02:35.246Z,20.91
2022-08-07T09:06:04.905Z,21.06
2022-08-07T09:09:56.692Z,21.59
2022-08-07T09:13:14.843Z,20.45
2022-08-07T09:16:48.131Z,21.49
2022-08-07T09:20:30.712Z,21.04
2022-08-07T09:24:53.661Z,21.88
2022-08-07T09:27:31.168Z,21.75
2022-08-07T09:30:48.173Z,22.70
2022-08-07T09:33:58.117Z,21.29
2022-08-07T09:37:00.541Z,22.28
2022-08-07T09:40:12.849Z,22.67
2022-08-07T09:44:19.944Z,22.47
2022-08-07T09:48:06.180Z,22.19
2022-08-07T09:52:17.072Z,22.65
2022-08-07T09:56:02.439Z,22.20
2022-08-07T09:59:26.935Z,22.84
2022-08-07T10:03:08.199Z,22.66
2022-08-07T10:06:37.875Z,22.54
2022-08-07T10:10:06.228Z,23.68
2022-08-07T10:14:00.281Z,22.84
2022-08-07T10:18:01.804Z,22.78
2022-08-07T10:21:19.827Z,22.77
2022-08-07T10:25:23.054Z,22.87
2022-08-07T10:28:49.602Z,23.32
2022-08-07T10:32:52.715Z,23.12
2022-08-07T10:36:41.408Z,24.03
2022-08-07T10:40:09.139Z,23.75
2022-08-07T10:43:34.186Z,23.37
2022-08-07T10:46:47.214Z,23.97
2022-08-07T10:49:54.868Z,23.80
2022-08-07T10:53:21.238Z,24.96
2022-08-07T10:57:00.164Z,23.98
2022-08-07T11:00:36.555Z,24.36
2022-08-07T11:03:52.671Z,25.34
2022-08-07T11:07:58.734Z,24.25
2022-08-07T11:11:35.933Z,24.93
2022-08-07T11:14:45.419Z,25.60
2022-08-07T11:18:36.941Z,24.52
2022-08-07T11:22:03.430Z,25.61
2022-08-07T11:25:14.864Z,24.70
2022-08-07T11:28:21.164Z,24.82
2022-08-07T11:31:49.009Z,25.39
2022-08-07T11:35:01.004Z,25.04
2022-08-07T11:38:10.177Z,25.44
2022-08-07T11:41:31.053Z,26.29
2022-08-07T11:44:57.883Z,25.18
2022-08-07T11:48:44.187Z,25.71
2022-08-07T11:52:37.616Z,26.00
2022-08-07T11:56:28.839Z,25.74
2022-08-07T12:00:12.127Z,26.05
2022-08-07T12:03:44.258Z,25.59
2022-08-07T12:07:09.052Z,26.91
2022-08-07T12:10:41.684Z,26.51
2022-08-07T12:14:05.360Z,27.91
2022-08-07T12:17:19.877Z,26.09
2022-08-07T12:20:30.262Z,25.94
2022-08-07T12:24:07.102Z,25.52
2022-08-07T12:27:16.905Z,25.76
2022-08-07T12:30:16.426Z,26.21
2022-08-07T12:33:28.257Z,25.53
2022-08-07T12:36:32.940Z,26.70
2022-08-07T12:39:42.488Z,26.50
2022-08-07T12:42:52.676Z,26.87
2022-08-07T12:45:56.635Z,25.84
2022-08-07T12:49:25.550Z,26.11
2022-08-07T12:52:52.330Z,26.14
2022-08-07T12:56:10.300Z,26.33
2022-08-07T12:59:20.419Z,26.19
2022-08-07T13:02:33.278Z,26.45
2022-08-07T13:06:22.045Z,26.85
2022-08-07T13:10:28.600Z,26.91
2022-08-07T13:13:47.408Z,26.85
2022-08-07T13:17:01.033Z,27.16
2022-08-07T13:20:09.508Z,27.59
2022-08-07T13:24:01.194Z,27.10
2022-08-07T13:27:00.411Z,26.13
2022-08-07T13:30:19.013Z,26.79
2022-08-07T13:34:33.615Z,26.51
2022-08-07T13:36:57.596Z,26.25
2022-08-07T13:40:36.666Z,26.58
2022-08-07T13:43:52.403Z,26.72
2022-08-07T13:46:58.781Z,26.91
2022-08-07T13:50:35.063Z,27.01
2022-08-07T13:53:23.743Z,26.46
2022-08-07T13:56:34.958Z,26.95
2022-08-07T13:59:39.692Z,26.66
2022-08-07T14:02:39.832Z,27.16
2022-08-07T14:05:50.698Z,26.76
2022-08-07T14:08:53.633Z,26.78
2022-08-07T14:12:10.338Z,26.97
2022-08-07T14:15:16.746Z,26.75
2022-08-07T14:18:31.278Z,26.64
2022-08-07T14:22:01.696Z,27.96
2022-08-07T14:25:14.031Z,26.78
2022-08-07T14:28:14.070Z,26.61
2022-08-07T14:31:13.489Z,26.79
2022-08-07T14:34:19.983Z,27.48
2022-08-07T14:37:19.062Z,27.04
2022-08-07T14:40:26.609Z,26.40
2022-08-07T14:43:57.212Z,26.79
2022-08-07T14:46:56.552Z,27.20
2022-08-07T14:50:11.291Z,26.62
2022-08-07T14:53:09.972Z,26.89
2022-08-07T14:56:13.165Z,26.69
2022-08-07T15:00:05.781Z,27.00
2022-08-07T15:02:34.499Z,26.65
2022-08-07T15:05:33.052Z,26.85
2022-08-07T15:08:50.386Z,26.99
2022-08-07T15:12:05.257Z,26.68
2022-08-07T15:15:17.384Z,26.81
2022-08-07T15:18:33.781Z,26.43
2022-08-07T15:28:35.865Z,26.38
2022-08-07T15:32:00.860Z,26.86
2022-08-07T15:34:57.182Z,26.70
2022-08-07T15:38:17.427Z,26.79
2022-08-07T15:41:23.940Z,27.01
2022-08-07T15:44:51.774Z,26.89
2022-08-07T15:48:02.068Z,26.34
2022-08-07T15:51:08.482Z,26.46
2022-08-07T15:54:11.881Z,26.28
2022-08-07T15:57:40.210Z,26.06
2022-08-07T16:00:39.753Z,26.27
2022-08-07T16:03:46.277Z,26.16
2022-08-07T16:06:54.325Z,26.64
2022-08-07T16:09:57.085Z,26.76
2022-08-07T16:13:59.438Z,26.39
2022-08-07T16:18:00.950Z,26.01
2022-08-07T16:20:55.226Z,25.75
2022-08-07T16:24:37.237Z,25.92
2022-08-07T16:27:57.259Z,25.79
2022-08-07T16:31:50.728Z,25.80
2022-08-07T16:34:48.650Z,25.38
2022-08-07T16:38:57.250Z,25.29
2022-08-07T16:42:03.579Z,25.51
2022-08-07T16:46:33.602Z,26.02
2022-08-07T16:50:29.368Z,25.32
2022-08-07T16:54:01.548Z,25.47
2022-08-07T16:58:00.768Z,25.17
2022-08-07T17:00:57.126Z,25.60
2022-08-07T17:04:12.473Z,25.71
2022-08-07T17:07:57.714Z,25.88
2022-08-07T17:10:57.418Z,25.42
2022-08-07T17:14:22.274Z,24.54
2022-08-07T17:17:48.003Z,24.39
2022-08-07T17:20:46.543Z,24.45
2022-08-07T17:23:54.927Z,24.70
2022-08-07T17:27:10.102Z,23.69
2022-08-07T17:30:19.155Z,24.10
2022-08-07T17:33:39.125Z,24.09
2022-08-07T17:36:59.922Z,23.82
2022-08-07T17:40:35.470Z,23.53
2022-08-07T17:44:02.638Z,23.58
2022-08-07T17:47:16.804Z,22.94
2022-08-07T17:50:30.532Z,22.90
2022-08-07T17:54:02.354Z,22.25
2022-08-07T17:57:58.232Z,22.46
2022-08-07T18:00:57.572Z,22.42
2022-08-07T18:04:34.784Z,22.65
2022-08-07T18:07:46.751Z,21.98
2022-08-07T18:12:06.491Z,22.36
2022-08-07T18:15:11.242Z,22.07
2022-08-07T18:18:47.013Z,21.90
2022-08-07T18:21:58.537Z,21.69
2022-08-07T18:25:24.251Z,21.71
2022-08-07T18:28:36.282Z,21.71
2022-08-07T18:32:35.293Z,21.52
2022-08-07T18:36:02.854Z,21.26
2022-08-07T18:40:07.124Z,20.96
2022-08-07T18:43:49.177Z,21.08
2022-08-07T18:47:25.461Z,20.70
2022-08-07T18:51:09.900Z,20.69
2022-08-07T18:54:42.569Z,20.32
2022-08-07T18:57:59.680Z,20.60
2022-08-07T19:02:18.305Z,20.56
2022-08-07T19:05:14.954Z,20.33
2022-08-07T19:08:49.558Z,20.00
2022-08-07T19:12:20.992Z,19.97
2022-08-07T19:17:00.355Z,19.89
2022-08-07T19:19:53.233Z,19.81
2022-08-07T19:23:18.606Z,19.71
2022-08-07T19:26:24.643Z,19.54
2022-08-07T19:31:05.964Z,19.67
2022-08-07T19:32:51.293Z,19.44
2022-08-07T19:35:56.579Z,19.29
2022-08-07T19:39:00.219Z,19.22
2022-08-07T19:42:08.124Z,19.07
2022-08-07T19:46:05.750Z,19.08
2022-08-07T19:49:02.500Z,19.18
2022-08-07T19:52:01.372Z,18.69
2022-08-07T19:54:59.817Z,18.89
2022-08-07T19:58:04.641Z,18.91
2022-08-07T20:01:15.228Z,18.52
2022-08-07T20:04:31.518Z,18.52
2022-08-07T20:07:47.523Z,18.52
2022-08-07T20:10:55.650Z,18.26
2022-08-07T20:13:55.851Z,18.41
2022-08-07T20:16:56.472Z,18.39
2022-08-07T20:19:58.506Z,18.22
2022-08-07T20:23:01.386Z,18.13
2022-08-07T20:26:10.307Z,18.20
2022-08-07T20:29:17.088Z,18.26
2022-08-07T20:32:39.694Z,18.05
2022-08-07T20:35:51.891Z,18.05
2022-08-07T20:39:17.830Z,17.90
2022-08-07T20:42:23.767Z,17.97
2022-08-07T20:45:33.509Z,17.91
2022-08-07T20:48:58.087Z,17.53
2022-08-07T20:52:00.156Z,17.72
2022-08-07T20:54:58.090Z,17.72
2022-08-07T20:58:03.865Z,17.44
2022-08-07T21:01:20.034Z,17.37
2022-08-07T21:04:23.582Z,17.13
2022-08-07T21:07:23.410Z,17.00
2022-08-07T21:10:31.365Z,17.09
2022-08-07T21:13:43.594Z,16.92
2022-08-07T21:16:56.990Z,17.10
2022-08-07T21:20:18.934Z,17.09
2022-08-07T21:24:02.808Z,16.55
2022-08-07T21:28:05.911Z,16.68
2022-08-07T21:31:50.060Z,16.77
2022-08-07T21:34:52.328Z,16.73
2022-08-07T21:38:21.563Z,16.48
2022-08-07T21:41:52.273Z,16.57
2022-08-07T21:45:42.022Z,16.30
2022-08-07T21:48:57.536Z,16.32
2022-08-07T21:52:17.711Z,16.18
2022-08-07T21:55:50.536Z,15.92
2022-08-07T21:59:09.843Z,16.20
2022-08-07T22:02:16.033Z,15.93
2022-08-07T22:05:44.727Z,15.97
2022-08-07T22:08:49.107Z,15.83
2022-08-07T22:12:04.924Z,15.91
2022-08-07T22:16:42.597Z,15.95
2022-08-07T22:18:54.985Z,15.64
2022-08-07T22:22:27.896Z,15.87
2022-08-07T22:25:43.558Z,15.71
2022-08-07T22:28:53.175Z,15.75
2022-08-07T22:32:10.595Z,15.73
2022-08-07T22:35:07.837Z,15.44
2022-08-07T22:38:28.429Z,15.67
2022-08-07T22:42:03.136Z,15.50
2022-08-07T22:45:10.960Z,15.45
2022-08-07T22:49:00.823Z,15.52
2022-08-07T22:52:37.004Z,15.53
2022-08-07T22:56:02.956Z,15.45
2022-08-07T22:59:37.738Z,15.53
2022-08-07T23:03:16.999Z,15.38
2022-08-07T23:06:51.644Z,15.48
2022-08-07T23:10:41.892Z,15.21
2022-08-07T23:14:16.626Z,15.16
2022-08-07T23:18:00.654Z,15.34
2022-08-07T23:21:20.950Z,15.11
2022-08-07T23:24:45.545Z,15.16
2022-08-07T23:28:28.554Z,15.02
2022-08-07T23:34:23.671Z,15.27
2022-08-07T23:35:38.827Z,15.19
2022-08-07T23:39:08.687Z,14.94
2022-08-07T23:42:48.288Z,14.94
2022-08-07T23:46:23.789Z,15.01
2022-08-07T23:50:11.911Z,14.92
2022-08-07T23:53:51.286Z,14.75
2022-08-07T23:57:18.429Z,14.86
